createdAt,value
2023-04-25T00:02:27.324Z,4.25
2023-04-25T00:04:54.680Z,4.10
2023-04-25T00:07:21.929Z,3.70
2023-04-25T00:09:48.842Z,4.55
2023-04-25T00:12:16.870Z,3.80
2023-04-25T00:14:43.848Z,4.25
2023-04-25T00:17:10.795Z,3.90
2023-04-25T00:19:39.313Z,4.20
2023-04-25T00:22:06.973Z,4.45
2023-04-25T00:24:34.097Z,4.38
2023-04-25T00:27:00.977Z,4.45
2023-04-25T00:29:27.867Z,4.78
2023-04-25T00:31:54.794Z,4.10
2023-04-25T00:34:21.831Z,4.63
2023-04-25T00:36:48.746Z,5.55
2023-04-25T00:39:16.892Z,5.07
2023-04-25T00:41:44.595Z,5.13
2023-04-25T00:44:13.284Z,4.80
2023-04-25T00:46:41.094Z,5.40
2023-04-25T00:49:08.094Z,5.35
2023-04-25T00:51:35.672Z,5.07
2023-04-25T00:54:03.179Z,5.65
2023-04-25T00:56:30.756Z,5.47
2023-04-25T00:58:58.002Z,5.82
2023-04-25T01:01:25.164Z,6.55
2023-04-25T01:03:55.800Z,6.22
2023-04-25T01:06:23.798Z,6.25
2023-04-25T01:08:50.762Z,6.85
2023-04-25T01:11:17.803Z,7.57
2023-04-25T01:13:45.061Z,7.15
2023-04-25T01:16:12.076Z,6.70
2023-04-25T01:18:41.673Z,6.82
2023-04-25T01:21:14.451Z,6.80
2023-04-25T01:23:43.051Z,6.40
2023-04-25T01:26:12.360Z,7.22
2023-04-25T01:28:42.532Z,6.88
2023-04-25T01:31:10.304Z,7.65
2023-04-25T01:33:37.441Z,7.32
2023-04-25T01:36:05.069Z,7.60
2023-04-25T01:38:32.710Z,7.35
2023-04-25T01:40:59.951Z,7.30
2023-04-25T01:43:27.889Z,6.55
2023-04-25T01:45:54.982Z,7.45
2023-04-25T01:48:21.948Z,6.55
2023-04-25T01:50:49.572Z,7.25
2023-04-25T01:53:16.717Z,6.78
2023-04-25T01:55:43.856Z,6.25
2023-04-25T01:58:14.033Z,6.18
2023-04-25T02:00:42.266Z,6.50
2023-04-25T02:03:10.022Z,5.90
2023-04-25T02:05:41.674Z,6.32
2023-04-25T02:08:10.514Z,5.93
2023-04-25T02:10:37.964Z,6.25
2023-04-25T02:13:06.542Z,6.30
2023-04-25T02:15:33.628Z,6.15
2023-04-25T02:18:03.800Z,5.80
2023-04-25T02:20:31.807Z,5.85
2023-04-25T02:22:59.151Z,6.55
2023-04-25T02:25:26.196Z,6.32
2023-04-25T02:27:53.087Z,6.18
2023-04-25T02:30:20.249Z,6.53
2023-04-25T02:32:47.901Z,5.88
2023-04-25T02:35:14.967Z,5.57
2023-04-25T02:37:42.115Z,5.95
2023-04-25T02:40:09.878Z,5.70
2023-04-25T02:42:37.461Z,5.90
2023-04-25T02:45:05.021Z,5.80
2023-04-25T02:47:32.822Z,5.88
2023-04-25T02:49:59.800Z,6.18
2023-04-25T02:52:27.124Z,5.55
2023-04-25T02:54:54.036Z,6.30
2023-04-25T02:57:21.068Z,5.55
2023-04-25T02:59:47.975Z,6.05
2023-04-25T03:02:15.028Z,5.70
2023-04-25T03:04:42.046Z,5.82
2023-04-25T03:07:09.249Z,5.82
2023-04-25T03:09:36.359Z,4.75
2023-04-25T03:12:03.605Z,5.00
2023-04-25T03:14:30.500Z,5.40
2023-04-25T03:16:57.397Z,4.78
2023-04-25T03:19:24.755Z,4.90
2023-04-25T03:21:51.772Z,5.85
2023-04-25T03:24:18.738Z,4.80
2023-04-25T03:26:45.661Z,4.95
2023-04-25T03:29:12.980Z,5.65
2023-04-25T03:31:39.989Z,5.15
2023-04-25T03:34:06.901Z,5.25
2023-04-25T03:36:33.959Z,5.15
2023-04-25T03:39:01.004Z,5.78
2023-04-25T03:41:27.871Z,5.68
2023-04-25T03:43:54.730Z,5.10
2023-04-25T03:46:21.700Z,5.65
2023-04-25T03:48:48.713Z,5.88
2023-04-25T03:51:15.621Z,5.70
2023-04-25T03:53:42.496Z,5.85
2023-04-25T03:56:09.504Z,5.20
2023-04-25T03:58:36.753Z,6.35
2023-04-25T04:01:08.970Z,5.45
2023-04-25T04:03:37.772Z,6.43
2023-04-25T04:06:06.963Z,9.35
2023-04-25T04:08:34.699Z,7.80
2023-04-25T04:11:01.750Z,9.75
2023-04-25T04:13:29.975Z,8.57
2023-04-25T04:15:57.355Z,6.93
2023-04-25T04:18:24.342Z,7.38
2023-04-25T04:20:51.596Z,7.13
2023-04-25T04:23:18.517Z,5.97
2023-04-25T04:25:45.565Z,6.50
2023-04-25T04:28:12.968Z,6.22
2023-04-25T04:30:40.529Z,6.40
2023-04-25T04:33:08.604Z,6.63
2023-04-25T04:35:35.734Z,6.93
2023-04-25T04:38:02.673Z,8.07
2023-04-25T04:40:29.604Z,7.63
2023-04-25T04:42:57.673Z,6.95
2023-04-25T04:45:25.152Z,7.07
2023-04-25T04:47:52.315Z,6.18
2023-04-25T04:50:19.481Z,6.15
2023-04-25T04:52:46.408Z,6.30
2023-04-25T04:55:13.317Z,6.18
2023-04-25T04:57:40.778Z,6.90
2023-04-25T05:00:12.348Z,5.82
2023-04-25T05:02:40.324Z,5.40
2023-04-25T05:05:09.089Z,5.38
2023-04-25T05:07:36.321Z,6.85
2023-04-25T05:10:03.859Z,5.82
2023-04-25T05:12:32.025Z,5.55
2023-04-25T05:14:58.942Z,5.40
2023-04-25T05:17:25.935Z,5.00
2023-04-25T05:19:52.894Z,5.75
2023-04-25T05:22:19.890Z,5.45
2023-04-25T05:24:47.376Z,5.43
2023-04-25T05:27:14.318Z,6.38
2023-04-25T05:29:41.276Z,5.30
2023-04-25T05:32:08.921Z,5.20
2023-04-25T05:34:36.246Z,5.80
2023-04-25T05:37:03.117Z,5.80
2023-04-25T05:39:30.439Z,5.82
2023-04-25T05:41:57.369Z,5.47
2023-04-25T05:44:24.451Z,5.70
2023-04-25T05:46:51.475Z,5.60
2023-04-25T05:49:19.585Z,5.50
2023-04-25T05:51:46.750Z,4.72
2023-04-25T05:54:13.652Z,5.75
2023-04-25T05:56:40.705Z,5.00
2023-04-25T05:59:07.643Z,5.10
2023-04-25T06:01:34.765Z,4.95
2023-04-25T06:04:02.993Z,4.60
2023-04-25T06:06:30.131Z,5.05
2023-04-25T06:08:57.122Z,5.00
2023-04-25T06:11:24.042Z,5.60
2023-04-25T06:13:51.507Z,5.88
2023-04-25T06:16:18.689Z,6.38
2023-04-25T06:18:45.610Z,5.63
2023-04-25T06:21:13.101Z,4.85
2023-04-25T06:23:40.052Z,5.22
2023-04-25T06:26:10.508Z,4.85
2023-04-25T06:28:37.529Z,5.15
2023-04-25T06:31:05.194Z,4.82
2023-04-25T06:33:32.263Z,4.15
2023-04-25T06:35:59.131Z,4.25
2023-04-25T06:38:26.051Z,3.67
2023-04-25T06:40:53.090Z,4.13
2023-04-25T06:43:20.039Z,3.75
2023-04-25T06:45:48.497Z,3.92
2023-04-25T06:48:15.630Z,4.53
2023-04-25T06:50:42.911Z,4.43
2023-04-25T06:53:10.257Z,4.40
2023-04-25T06:55:37.409Z,3.60
2023-04-25T06:58:04.654Z,4.05
2023-04-25T07:00:31.847Z,4.40
2023-04-25T07:02:59.387Z,4.18
2023-04-25T07:05:26.709Z,4.10
2023-04-25T07:07:53.727Z,3.47
2023-04-25T07:10:22.683Z,3.63
2023-04-25T07:12:49.735Z,4.20
2023-04-25T07:15:17.040Z,3.58
2023-04-25T07:17:44.035Z,3.70
2023-04-25T07:20:11.847Z,3.78
2023-04-25T07:22:38.805Z,3.38
2023-04-25T07:25:06.952Z,3.67
2023-04-25T07:27:34.190Z,3.75
2023-04-25T07:30:01.184Z,3.60
2023-04-25T07:32:28.423Z,2.60
2023-04-25T07:34:55.577Z,3.20
2023-04-25T07:37:23.649Z,3.17
2023-04-25T07:39:50.535Z,3.22
2023-04-25T07:42:17.728Z,3.17
2023-04-25T07:44:44.715Z,2.72
2023-04-25T07:47:11.851Z,3.13
2023-04-25T07:49:39.333Z,2.95
2023-04-25T07:52:07.377Z,2.65
2023-04-25T07:54:34.461Z,2.83
2023-04-25T07:57:01.702Z,3.15
2023-04-25T07:59:30.180Z,2.47
2023-04-25T08:01:58.746Z,2.92
2023-04-25T08:04:27.248Z,2.72
2023-04-25T08:06:55.010Z,2.42
2023-04-25T08:09:22.408Z,2.60
2023-04-25T08:11:49.913Z,2.63
2023-04-25T08:14:16.820Z,2.40
2023-04-25T08:16:44.099Z,2.15
2023-04-25T08:19:12.206Z,2.20
2023-04-25T08:21:39.480Z,2.20
2023-04-25T08:24:06.950Z,2.30
2023-04-25T08:26:35.068Z,2.55
2023-04-25T08:29:02.146Z,3.20
2023-04-25T08:31:29.550Z,2.78
2023-04-25T08:33:56.588Z,2.38
2023-04-25T08:36:35.539Z,2.30
2023-04-25T08:39:05.240Z,1.90
2023-04-25T08:41:33.165Z,1.80
2023-04-25T08:44:02.519Z,1.88
2023-04-25T08:46:32.346Z,2.05
2023-04-25T08:49:03.616Z,2.05
2023-04-25T08:51:33.889Z,1.80
2023-04-25T08:56:46.746Z,2.00
2023-04-25T08:59:14.260Z,2.70
2023-04-25T09:01:42.120Z,1.80
2023-04-25T09:04:09.362Z,2.30
2023-04-25T09:06:37.127Z,2.80
2023-04-25T09:09:06.683Z,2.28
2023-04-25T09:11:35.144Z,2.28
2023-04-25T09:14:15.975Z,2.00
2023-04-25T09:17:02.332Z,2.05
2023-04-25T09:19:40.810Z,1.77
2023-04-25T09:22:09.605Z,1.95
2023-04-25T09:24:47.142Z,2.15
2023-04-25T09:27:21.168Z,2.30
2023-04-25T09:29:48.206Z,1.77
2023-04-25T09:32:24.877Z,2.13
2023-04-25T09:34:54.727Z,1.73
2023-04-25T09:37:26.693Z,1.65
2023-04-25T09:40:06.533Z,1.95
2023-04-25T09:42:35.893Z,1.90
2023-04-25T09:45:05.173Z,2.00
2023-04-25T09:47:32.297Z,1.73
2023-04-25T09:49:59.725Z,1.98
2023-04-25T09:52:26.828Z,1.73
2023-04-25T09:54:54.096Z,2.20
2023-04-25T09:57:24.853Z,1.80
2023-04-25T09:59:54.943Z,2.10
2023-04-25T10:02:28.468Z,2.10
2023-04-25T10:04:57.339Z,1.98
2023-04-25T10:07:27.310Z,2.33
2023-04-25T10:10:03.065Z,2.15
2023-04-25T10:12:32.537Z,2.10
2023-04-25T10:15:00.700Z,2.20
2023-04-25T10:17:31.356Z,2.35
2023-04-25T10:19:59.877Z,2.55
2023-04-25T10:22:38.656Z,2.10
2023-04-25T10:25:07.342Z,2.10
2023-04-25T10:27:36.178Z,2.38
2023-04-25T10:30:16.788Z,2.40
2023-04-25T10:32:45.164Z,2.00
2023-04-25T10:35:28.675Z,2.10
2023-04-25T10:38:00.338Z,2.00
2023-04-25T10:40:28.513Z,1.60
2023-04-25T10:42:57.201Z,2.30
2023-04-25T10:45:24.619Z,1.83
2023-04-25T10:47:51.604Z,1.50
2023-04-25T10:50:19.243Z,1.85
2023-04-25T10:52:46.118Z,1.65
2023-04-25T10:55:14.178Z,1.63
2023-04-25T10:57:42.646Z,2.17
2023-04-25T11:00:19.832Z,1.63
2023-04-25T11:02:51.324Z,1.80
2023-04-25T11:05:36.504Z,1.98
2023-04-25T11:08:13.050Z,1.85
2023-04-25T11:10:41.472Z,2.20
2023-04-25T11:13:08.673Z,1.80
2023-04-25T11:15:35.641Z,1.90
2023-04-25T11:18:03.566Z,1.73
2023-04-25T11:20:30.724Z,2.00
2023-04-25T11:25:31.605Z,1.73
2023-04-25T11:28:02.460Z,1.70
2023-04-25T11:30:31.852Z,1.60
2023-04-25T11:32:59.264Z,1.48
2023-04-25T11:35:26.954Z,1.75
2023-04-25T11:37:54.019Z,1.30
2023-04-25T11:40:21.248Z,1.30
2023-04-25T11:42:49.109Z,2.25
2023-04-25T11:45:16.785Z,2.17
2023-04-25T11:47:43.912Z,1.70
2023-04-25T11:50:11.330Z,1.42
2023-04-25T11:52:44.363Z,1.70
2023-04-25T11:55:17.628Z,1.50
2023-04-25T11:57:48.276Z,1.50
2023-04-25T12:00:21.877Z,1.45
2023-04-25T12:02:55.032Z,1.50
2023-04-25T12:05:32.587Z,1.50
2023-04-25T12:08:13.402Z,1.60
2023-04-25T12:10:42.037Z,1.70
2023-04-25T12:13:27.033Z,1.42
2023-04-25T12:15:57.362Z,1.73
2023-04-25T12:18:29.166Z,1.50
2023-04-25T12:20:56.565Z,1.98
2023-04-25T12:23:30.236Z,1.63
2023-04-25T12:25:57.651Z,1.75
2023-04-25T12:28:28.329Z,1.45
2023-04-25T12:30:57.562Z,1.60
2023-04-25T12:33:26.094Z,1.75
2023-04-25T12:35:54.589Z,2.17
2023-04-25T12:38:32.687Z,1.75
2023-04-25T12:40:59.894Z,1.77
2023-04-25T12:43:27.279Z,1.75
2023-04-25T12:45:56.425Z,1.70
2023-04-25T12:48:24.545Z,2.00
2023-04-25T12:50:53.386Z,1.98
2023-04-25T12:53:22.407Z,2.00
2023-04-25T12:55:50.048Z,2.03
2023-04-25T12:58:19.430Z,1.83
2023-04-25T13:00:47.485Z,2.47
2023-04-25T13:03:14.672Z,1.95
2023-04-25T13:05:42.847Z,1.83
2023-04-25T13:08:10.006Z,1.90
2023-04-25T13:10:38.179Z,2.20
2023-04-25T13:13:05.060Z,3.55
2023-04-25T13:15:32.144Z,4.40
2023-04-25T13:17:59.453Z,2.80
2023-04-25T13:20:26.435Z,2.22
2023-04-25T13:22:53.629Z,2.00
2023-04-25T13:25:20.838Z,2.40
2023-04-25T13:27:47.781Z,2.00
2023-04-25T13:30:15.465Z,2.05
2023-04-25T13:32:42.417Z,2.00
2023-04-25T13:35:13.260Z,2.20
2023-04-25T13:37:40.815Z,1.92
2023-04-25T13:40:11.301Z,2.40
2023-04-25T13:42:39.470Z,2.15
2023-04-25T13:45:08.005Z,2.15
2023-04-25T13:47:36.168Z,2.50
2023-04-25T13:50:04.777Z,2.65
2023-04-25T13:52:31.991Z,2.65
2023-04-25T13:55:00.219Z,3.00
2023-04-25T13:57:27.414Z,2.45
2023-04-25T13:59:55.037Z,2.55
2023-04-25T14:02:21.987Z,2.55
2023-04-25T14:04:49.268Z,2.60
2023-04-25T14:07:17.755Z,2.63
2023-04-25T14:09:45.467Z,2.50
2023-04-25T14:12:12.447Z,2.30
2023-04-25T14:14:39.400Z,2.80
2023-04-25T14:17:06.307Z,2.53
2023-04-25T14:19:33.221Z,2.58
2023-04-25T14:22:00.666Z,2.75
2023-04-25T14:24:30.993Z,2.67
2023-04-25T14:26:57.877Z,2.88
2023-04-25T14:29:24.798Z,3.08
2023-04-25T14:31:51.685Z,2.72
2023-04-25T14:34:18.730Z,2.80
2023-04-25T14:36:45.677Z,2.92
2023-04-25T14:39:13.729Z,2.50
2023-04-25T14:41:40.801Z,2.78
2023-04-25T14:44:07.789Z,3.08
2023-04-25T14:46:34.789Z,3.30
2023-04-25T14:49:02.415Z,4.28
2023-04-25T14:51:29.370Z,3.58
2023-04-25T14:53:56.952Z,3.13
2023-04-25T14:56:24.322Z,3.63
2023-04-25T14:58:51.288Z,3.33
2023-04-25T15:01:18.254Z,3.08
2023-04-25T15:03:45.460Z,3.13
2023-04-25T15:06:12.563Z,3.28
2023-04-25T15:08:39.461Z,3.47
2023-04-25T15:11:06.605Z,3.20
2023-04-25T15:13:33.919Z,2.83
2023-04-25T15:16:00.990Z,3.28
2023-04-25T15:18:27.880Z,3.30
2023-04-25T15:20:55.135Z,3.42
2023-04-25T15:23:22.878Z,3.70
2023-04-25T15:25:52.423Z,3.28
2023-04-25T15:28:20.333Z,3.17
2023-04-25T15:30:47.285Z,3.10
2023-04-25T15:33:14.934Z,3.00
2023-04-25T15:35:41.908Z,3.17
2023-04-25T15:38:11.540Z,2.95
2023-04-25T15:40:38.720Z,3.17
2023-04-25T15:43:05.903Z,3.13
2023-04-25T15:45:33.333Z,3.38
2023-04-25T15:48:00.326Z,3.25
2023-04-25T15:50:27.671Z,3.22
2023-04-25T15:52:54.742Z,3.58
2023-04-25T15:55:22.128Z,3.30
2023-04-25T15:57:51.357Z,3.13
2023-04-25T16:00:19.649Z,3.13
2023-04-25T16:02:48.654Z,3.20
2023-04-25T16:05:16.085Z,4.53
2023-04-25T16:07:45.287Z,4.57
2023-04-25T16:10:13.458Z,4.53
2023-04-25T16:12:41.386Z,3.72
2023-04-25T16:15:09.108Z,3.92
2023-04-25T16:17:36.169Z,3.30
2023-04-25T16:20:10.237Z,3.08
2023-04-25T16:22:39.778Z,3.40
2023-04-25T16:25:08.320Z,3.55
2023-04-25T16:27:35.633Z,3.40
2023-04-25T16:30:03.862Z,3.08
2023-04-25T16:32:31.333Z,3.30
2023-04-25T16:34:58.937Z,3.50
2023-04-25T16:37:26.310Z,3.85
2023-04-25T16:39:53.609Z,3.78
2023-04-25T16:42:20.548Z,3.30
2023-04-25T16:44:47.580Z,3.20
2023-04-25T16:47:18.681Z,3.90
2023-04-25T16:49:46.575Z,3.28
2023-04-25T16:52:13.611Z,3.35
2023-04-25T16:54:40.721Z,3.42
2023-04-25T16:57:11.331Z,3.40
2023-04-25T16:59:39.724Z,2.72
2023-04-25T17:02:13.144Z,3.30
2023-04-25T17:04:41.004Z,3.55
2023-04-25T17:07:09.037Z,3.20
2023-04-25T17:09:36.534Z,7.28
2023-04-25T17:12:04.751Z,12.40
2023-04-25T17:14:33.404Z,8.63
2023-04-25T17:17:00.517Z,5.38
2023-04-25T17:19:28.653Z,3.75
2023-04-25T17:21:56.211Z,3.42
2023-04-25T17:24:23.192Z,3.88
2023-04-25T17:26:50.246Z,3.95
2023-04-25T17:29:17.134Z,3.70
2023-04-25T17:31:45.226Z,3.38
2023-04-25T17:34:16.700Z,3.65
2023-04-25T17:36:45.277Z,3.83
2023-04-25T17:39:12.363Z,3.60
2023-04-25T17:41:39.287Z,3.60
2023-04-25T17:44:06.197Z,3.97
2023-04-25T17:46:33.362Z,3.78
2023-04-25T17:49:01.168Z,3.40
2023-04-25T17:51:28.694Z,3.70
2023-04-25T17:53:56.177Z,3.60
2023-04-25T17:56:27.000Z,4.03
2023-04-25T17:58:54.780Z,3.22
2023-04-25T18:01:22.748Z,3.55
2023-04-25T18:03:50.615Z,3.53
2023-04-25T18:06:18.865Z,3.88
2023-04-25T18:08:46.817Z,3.90
2023-04-25T18:11:13.744Z,3.72
2023-04-25T18:13:41.476Z,3.75
2023-04-25T18:16:08.772Z,4.05
2023-04-25T18:18:37.080Z,3.33
2023-04-25T18:21:05.903Z,3.70
2023-04-25T18:23:34.379Z,4.10
2023-04-25T18:26:03.024Z,3.70
2023-04-25T18:28:30.439Z,3.80
2023-04-25T18:30:57.441Z,3.60
2023-04-25T18:33:24.532Z,4.03
2023-04-25T18:38:34.937Z,4.07
2023-04-25T18:41:24.049Z,3.65
2023-04-25T18:43:55.845Z,3.90
2023-04-25T18:46:23.333Z,3.97
2023-04-25T18:48:54.633Z,3.50
2023-04-25T18:51:27.970Z,3.97
2023-04-25T18:53:55.124Z,4.00
2023-04-25T18:56:23.176Z,3.33
2023-04-25T18:58:54.108Z,4.07
2023-04-25T19:01:23.268Z,3.47
2023-04-25T19:03:57.164Z,3.42
2023-04-25T19:06:28.208Z,3.92
2023-04-25T19:08:56.652Z,3.45
2023-04-25T19:11:24.612Z,3.40
2023-04-25T19:13:52.187Z,3.35
2023-04-25T19:16:19.447Z,3.85
2023-04-25T19:18:47.381Z,4.13
2023-04-25T19:21:14.932Z,4.07
2023-04-25T19:23:41.972Z,4.30
2023-04-25T19:26:09.046Z,4.30
2023-04-25T19:28:36.040Z,6.40
2023-04-25T19:31:03.429Z,5.10
2023-04-25T19:33:30.469Z,5.57
2023-04-25T19:35:57.694Z,4.53
2023-04-25T19:38:24.707Z,5.93
2023-04-25T19:40:51.585Z,6.18
2023-04-25T19:43:18.949Z,4.38
2023-04-25T19:45:46.682Z,4.50
2023-04-25T19:48:15.089Z,4.45
2023-04-25T19:50:42.377Z,5.25
2023-04-25T19:53:09.904Z,5.90
2023-04-25T19:55:36.958Z,4.72
2023-04-25T19:58:07.276Z,5.40
2023-04-25T20:00:34.957Z,4.80
2023-04-25T20:03:02.139Z,4.78
2023-04-25T20:05:29.050Z,5.10
2023-04-25T20:07:55.984Z,4.32
2023-04-25T20:10:23.467Z,6.57
2023-04-25T20:12:50.817Z,5.47
2023-04-25T20:15:19.025Z,5.22
2023-04-25T20:17:45.955Z,5.88
2023-04-25T20:20:13.118Z,9.70
2023-04-25T20:22:40.833Z,6.40
2023-04-25T20:25:10.098Z,6.78
2023-04-25T20:27:40.223Z,6.28
2023-04-25T20:30:08.877Z,5.75
2023-04-25T20:32:37.252Z,6.00
2023-04-25T20:35:07.367Z,8.52
2023-04-25T20:37:35.189Z,13.18
2023-04-25T20:40:06.280Z,9.27
2023-04-25T20:42:33.260Z,7.97
2023-04-25T20:45:01.016Z,7.10
2023-04-25T20:47:28.669Z,6.50
2023-04-25T20:49:55.722Z,6.20
2023-04-25T20:52:23.400Z,7.47
2023-04-25T20:54:50.890Z,8.50
2023-04-25T20:57:17.966Z,6.25
2023-04-25T20:59:45.280Z,6.72
2023-04-25T21:02:15.824Z,5.78
2023-04-25T21:04:46.808Z,5.90
2023-04-25T21:07:14.121Z,4.80
2023-04-25T21:09:43.023Z,5.20
2023-04-25T21:12:10.111Z,5.43
2023-04-25T21:14:37.151Z,5.72
2023-04-25T21:17:04.756Z,5.47
2023-04-25T21:19:31.974Z,6.00
2023-04-25T21:21:59.572Z,5.50
2023-04-25T21:24:27.507Z,4.80
2023-04-25T21:26:54.627Z,4.85
2023-04-25T21:29:21.881Z,5.32
2023-04-25T21:31:48.955Z,4.65
2023-04-25T21:34:16.406Z,5.22
2023-04-25T21:36:44.459Z,4.72
2023-04-25T21:39:11.598Z,5.03
2023-04-25T21:41:38.828Z,6.00
2023-04-25T21:44:06.728Z,6.22
2023-04-25T21:46:34.655Z,6.10
2023-04-25T21:49:01.842Z,6.05
2023-04-25T21:51:29.271Z,5.88
2023-04-25T21:53:56.159Z,6.00
2023-04-25T21:56:23.357Z,8.75
2023-04-25T21:58:50.954Z,7.40
2023-04-25T22:01:18.051Z,9.05
2023-04-25T22:03:45.378Z,10.60
2023-04-25T22:06:12.386Z,8.93
2023-04-25T22:08:39.233Z,9.07
2023-04-25T22:11:07.679Z,10.13
2023-04-25T22:13:34.552Z,10.85
2023-04-25T22:16:01.438Z,10.13
2023-04-25T22:18:28.367Z,11.43
2023-04-25T22:20:55.530Z,9.68
2023-04-25T22:23:22.881Z,6.90
2023-04-25T22:25:49.787Z,6.80
2023-04-25T22:28:17.028Z,6.30
2023-04-25T22:30:44.170Z,6.10
2023-04-25T22:33:11.676Z,5.15
2023-04-25T22:35:40.121Z,5.82
2023-04-25T22:38:07.014Z,6.90
2023-04-25T22:40:34.240Z,7.30
2023-04-25T22:43:01.148Z,5.82
2023-04-25T22:45:28.085Z,6.18
2023-04-25T22:47:55.197Z,5.82
2023-04-25T22:50:22.139Z,6.38
2023-04-25T22:52:49.235Z,6.10
2023-04-25T22:55:16.361Z,6.00
2023-04-25T22:57:43.316Z,6.07
2023-04-25T23:00:19.937Z,5.60
2023-04-25T23:02:47.379Z,5.07
2023-04-25T23:05:15.598Z,4.60
2023-04-25T23:07:45.250Z,5.20
2023-04-25T23:10:13.404Z,4.63
2023-04-25T23:12:40.515Z,4.65
2023-04-25T23:15:08.738Z,4.95
2023-04-25T23:17:37.416Z,4.13
2023-04-25T23:20:07.911Z,4.10
2023-04-25T23:22:34.986Z,4.63
2023-04-25T23:25:02.402Z,5.05
2023-04-25T23:27:29.409Z,4.82
2023-04-25T23:29:56.937Z,5.32
2023-04-25T23:32:26.551Z,5.72
2023-04-25T23:34:53.516Z,6.25
2023-04-25T23:37:20.430Z,5.57
2023-04-25T23:39:51.175Z,5.72
2023-04-25T23:42:19.231Z,5.70
2023-04-25T23:44:46.102Z,6.53
2023-04-25T23:47:14.595Z,7.30
2023-04-25T23:49:41.628Z,7.07
2023-04-25T23:52:08.672Z,7.90
2023-04-25T23:54:36.196Z,8.02
2023-04-25T23:57:04.639Z,7.60
2023-04-25T23:59:31.907Z,7.40
